Time;durP1;ratioP1;P1;durP2;ratioP2;P2;SDS_P1;SDS_P2;PMS_P1;PMS_P2;Temp;Humidity;BMP_temperature;BMP_pressure;BME280_temperature;BME280_humidity;BME280_pressure;Samples;Min_cycle;Max_cycle;Signal;HPM_P1;HPM_P2
2022/12/21 00:00:01;;;;;;;;;6.00;5.60;;;;;;;;5189793;28;8801;-74
2022/12/21 00:02:42;;;;;;;;;9.40;9.40;;;;;;;;5206094;28;8939;-74
2022/12/21 00:05:14;;;;;;;;;11.80;11.80;;;;;;;;5188968;28;8848;-73
2022/12/21 00:07:45;;;;;;;;;11.20;11.20;;;;;;;;5207104;28;8797;-74
2022/12/21 00:10:16;;;;;;;;;9.20;9.20;;;;;;;;5207725;28;8816;-73
2022/12/21 00:12:47;;;;;;;;;8.20;8.20;;;;;;;;5206279;28;8792;-73
2022/12/21 00:15:18;;;;;;;;;6.20;6.20;;;;;;;;5206057;28;8812;-73
2022/12/21 00:17:49;;;;;;;;;3.60;3.60;;;;;;;;5189339;28;8795;-72
2022/12/21 00:20:20;;;;;;;;;9.40;9.40;;;;;;;;5206866;28;8792;-72
2022/12/21 00:22:52;;;;;;;;;7.80;7.80;;;;;;;;5205632;28;8866;-72
2022/12/21 00:25:23;;;;;;;;;3.20;3.20;;;;;;;;5205302;28;8820;-70
2022/12/21 00:27:54;;;;;;;;;7.00;7.00;;;;;;;;5206695;28;8789;-71
2022/12/21 00:30:25;;;;;;;;;7.40;7.40;;;;;;;;5205475;28;8796;-71
2022/12/21 00:33:15;;;;;;;;;7.20;7.20;;;;;;;;5206389;28;8811;-71
2022/12/21 00:36:05;;;;;;;;;3.60;3.60;;;;;;;;5207063;28;8815;-71
2022/12/21 00:38:37;;;;;;;;;1.00;0.60;;;;;;;;5190720;28;8796;-70
2022/12/21 00:41:11;;;;;;;;;3.00;3.00;;;;;;;;5193076;28;8788;-71
2022/12/21 00:43:42;;;;;;;;;3.40;3.40;;;;;;;;5190470;28;8838;-71
2022/12/21 00:46:18;;;;;;;;;3.00;3.00;;;;;;;;5189102;28;8784;-71
2022/12/21 00:48:49;;;;;;;;;5.20;5.20;;;;;;;;5188986;28;8773;-71
2022/12/21 00:51:22;;;;;;;;;1.00;1.00;;;;;;;;5187951;28;8800;-70
2022/12/21 00:53:54;;;;;;;;;1.80;1.80;;;;;;;;5205452;28;8938;-73
2022/12/21 00:56:26;;;;;;;;;3.60;3.60;;;;;;;;5205265;28;8827;-72
2022/12/21 00:58:57;;;;;;;;;6.60;6.60;;;;;;;;5204637;28;8954;-73
2022/12/21 01:01:30;;;;;;;;;6.40;6.20;;;;;;;;5188543;28;8792;-73
2022/12/21 01:04:01;;;;;;;;;6.60;6.60;;;;;;;;5188313;28;8874;-73
2022/12/21 01:06:34;;;;;;;;;6.20;4.80;;;;;;;;5204952;28;8776;-73
2022/12/21 01:09:06;;;;;;;;;4.40;4.40;;;;;;;;5204986;28;8800;-73
2022/12/21 01:11:37;;;;;;;;;6.00;6.00;;;;;;;;5206122;28;8772;-73
2022/12/21 01:14:27;;;;;;;;;6.00;6.00;;;;;;;;5205393;28;8814;-73
2022/12/21 01:16:58;;;;;;;;;2.60;2.60;;;;;;;;5206117;28;8785;-73
2022/12/21 01:19:30;;;;;;;;;2.20;2.20;;;;;;;;5188073;28;8813;-73
2022/12/21 01:22:02;;;;;;;;;1.80;1.80;;;;;;;;5204701;28;8916;-72
2022/12/21 01:24:34;;;;;;;;;0.60;0.60;;;;;;;;5204379;28;8840;-71
2022/12/21 01:27:05;;;;;;;;;0.60;0.60;;;;;;;;5187970;28;8800;-72
2022/12/21 01:29:54;;;;;;;;;2.20;2.20;;;;;;;;5205691;28;8795;-72
2022/12/21 01:32:25;;;;;;;;;5.50;5.50;;;;;;;;5205369;28;8804;-73
2022/12/21 01:34:57;;;;;;;;;6.40;6.40;;;;;;;;5172017;28;8870;-72
2022/12/21 01:37:46;;;;;;;;;3.60;3.60;;;;;;;;5206017;28;9495;-73
2022/12/21 01:40:36;;;;;;;;;1.00;1.00;;;;;;;;5183973;28;8817;-72
2022/12/21 01:43:26;;;;;;;;;4.00;3.33;;;;;;;;5184717;28;8771;-70
2022/12/21 01:45:57;;;;;;;;;8.20;8.20;;;;;;;;5204465;28;8792;-69
2022/12/21 01:48:34;;;;;;;;;9.40;9.40;;;;;;;;5205313;28;8789;-69
2022/12/21 01:51:05;;;;;;;;;3.20;3.20;;;;;;;;5204288;28;8796;-69
2022/12/21 01:53:38;;;;;;;;;4.00;4.00;;;;;;;;5187720;28;8832;-70
2022/12/21 01:56:11;;;;;;;;;1.00;1.00;;;;;;;;5204078;28;8800;-69
2022/12/21 01:58:42;;;;;;;;;1.00;1.00;;;;;;;;5204158;28;8777;-69
2022/12/21 02:01:13;;;;;;;;;0.00;0.00;;;;;;;;5205149;28;8789;-71
2022/12/21 02:04:03;;;;;;;;;0.80;0.80;;;;;;;;5203467;28;8844;-71
2022/12/21 02:06:45;;;;;;;;;2.20;2.20;;;;;;;;5187014;28;8792;-71
2022/12/21 02:09:17;;;;;;;;;7.00;7.00;;;;;;;;5187437;28;8923;-71
2022/12/21 02:11:53;;;;;;;;;4.80;4.80;;;;;;;;5187825;28;8784;-71
2022/12/21 02:14:25;;;;;;;;;6.40;6.00;;;;;;;;5187387;28;8842;-72
2022/12/21 02:16:59;;;;;;;;;6.80;6.20;;;;;;;;5204354;28;8783;-72
2022/12/21 02:20:04;;;;;;;;;7.80;7.80;;;;;;;;5189506;28;8854;-72
2022/12/21 02:22:59;;;;;;;;;7.00;6.60;;;;;;;;5190115;28;8804;-72
2022/12/21 02:25:42;;;;;;;;;13.20;12.00;;;;;;;;5187711;28;9539;-71
2022/12/21 02:28:29;;;;;;;;;12.00;12.00;;;;;;;;5203708;28;8800;-72
2022/12/21 02:31:07;;;;;;;;;13.20;13.20;;;;;;;;5203650;28;9531;-72
2022/12/21 02:33:56;;;;;;;;;11.20;10.80;;;;;;;;5170977;28;8935;-71
2022/12/21 02:37:01;;;;;;;;;8.40;8.40;;;;;;;;5204764;28;8800;-70
2022/12/21 02:39:41;;;;;;;;;10.00;10.00;;;;;;;;5203427;28;8838;-70
2022/12/21 02:45:18;;;;;;;;;12.60;12.20;;;;;;;;5186838;28;8855;-71
2022/12/21 02:47:58;;;;;;;;;7.00;7.00;;;;;;;;5203638;28;8812;-71
2022/12/21 02:50:33;;;;;;;;;7.00;6.60;;;;;;;;5187622;28;8792;-72
2022/12/21 02:53:06;;;;;;;;;12.20;12.20;;;;;;;;5203737;28;8796;-71
2022/12/21 02:55:37;;;;;;;;;14.80;14.80;;;;;;;;5203538;28;8824;-72
2022/12/21 02:58:13;;;;;;;;;10.00;10.00;;;;;;;;5187250;28;8819;-71
2022/12/21 03:00:47;;;;;;;;;9.80;9.80;;;;;;;;5204011;28;8797;-71
2022/12/21 03:06:26;;;;;;;;;13.20;12.20;;;;;;;;5205027;28;8789;-71
2022/12/21 03:09:05;;;;;;;;;11.20;11.20;;;;;;;;5203414;28;8796;-70
2022/12/21 03:11:39;;;;;;;;;10.80;10.80;;;;;;;;5187595;28;8784;-70
2022/12/21 03:14:19;;;;;;;;;9.20;9.20;;;;;;;;5203881;28;8804;-71
2022/12/21 03:16:53;;;;;;;;;9.00;8.20;;;;;;;;5184246;28;8818;-73
2022/12/21 03:19:30;;;;;;;;;10.00;10.00;;;;;;;;5206203;28;8800;-70
2022/12/21 03:22:07;;;;;;;;;8.40;7.60;;;;;;;;5191010;28;8882;-70
2022/12/21 03:24:42;;;;;;;;;45.40;42.80;;;;;;;;5206282;28;8970;-71
2022/12/21 03:27:19;;;;;;;;;14.20;12.60;;;;;;;;5206187;28;8848;-73
2022/12/21 03:29:53;;;;;;;;;12.20;12.20;;;;;;;;5190733;28;8777;-73
2022/12/21 03:32:44;;;;;;;;;16.20;16.20;;;;;;;;5190434;28;8919;-74
2022/12/21 03:35:20;;;;;;;;;10.80;10.40;;;;;;;;5190045;28;8829;-73
2022/12/21 03:37:51;;;;;;;;;15.00;15.00;;;;;;;;5189997;28;8772;-73
2022/12/21 03:40:24;;;;;;;;;9.00;7.80;;;;;;;;5206687;28;8772;-74
2022/12/21 03:42:58;;;;;;;;;9.00;9.00;;;;;;;;5206136;28;8784;-74
2022/12/21 03:45:33;;;;;;;;;10.00;10.00;;;;;;;;5207652;28;8820;-74
2022/12/21 03:48:12;;;;;;;;;12.60;12.60;;;;;;;;5189459;28;8839;-74
2022/12/21 03:50:46;;;;;;;;;10.20;10.20;;;;;;;;5176974;28;8800;-73
2022/12/21 03:53:30;;;;;;;;;14.80;14.00;;;;;;;;5208208;28;8897;-73
2022/12/21 03:56:23;;;;;;;;;19.20;17.20;;;;;;;;5214356;28;8802;-71
2022/12/21 03:58:54;;;;;;;;;15.20;15.20;;;;;;;;5211757;28;8789;-71
2022/12/21 04:01:31;;;;;;;;;39.75;39.50;;;;;;;;5190392;28;8800;-72
2022/12/21 04:04:33;;;;;;;;;39.80;36.00;;;;;;;;5207292;28;8812;-72
2022/12/21 04:07:06;;;;;;;;;30.60;28.60;;;;;;;;5206424;28;8796;-74
2022/12/21 04:09:38;;;;;;;;;34.40;34.40;;;;;;;;5207675;28;8830;-78
2022/12/21 04:15:01;;;;;;;;;34.20;34.20;;;;;;;;5181262;28;8795;-75
2022/12/21 04:17:34;;;;;;;;;32.40;32.00;;;;;;;;5182572;28;8798;-74
2022/12/21 04:20:06;;;;;;;;;37.00;35.40;;;;;;;;5193080;28;8797;-73
2022/12/21 04:28:43;;;;;;;;;24.80;24.20;;;;;;;;5189690;28;8975;-76
2022/12/21 04:31:14;;;;;;;;;33.00;31.80;;;;;;;;5205970;28;8788;-73
2022/12/21 04:33:45;;;;;;;;;60.00;46.75;;;;;;;;5188589;28;8813;-73
2022/12/21 04:39:06;;;;;;;;;34.40;32.40;;;;;;;;5205316;28;8919;-73
2022/12/21 04:41:55;;;;;;;;;43.50;40.25;;;;;;;;5205581;28;8781;-74
2022/12/21 04:44:26;;;;;;;;;33.60;33.40;;;;;;;;5188485;28;8855;-73
2022/12/21 04:46:58;;;;;;;;;44.25;43.25;;;;;;;;5205547;28;8812;-74
2022/12/21 04:49:47;;;;;;;;;1.00;0.40;;;;;;;;5205721;28;8882;-76
2022/12/21 04:52:18;;;;;;;;;29.20;27.60;;;;;;;;5188549;28;8796;-75
2022/12/21 04:54:50;;;;;;;;;33.20;29.20;;;;;;;;5188853;28;9530;-74
2022/12/21 04:57:39;;;;;;;;;20.60;18.40;;;;;;;;5191441;28;8791;-74
2022/12/21 05:00:10;;;;;;;;;22.20;22.20;;;;;;;;5206112;28;8874;-76
2022/12/21 05:02:42;;;;;;;;;14.20;14.20;;;;;;;;5172491;28;8827;-76
2022/12/21 05:05:13;;;;;;;;;22.80;21.60;;;;;;;;5188186;28;8979;-75
2022/12/21 05:07:44;;;;;;;;;26.60;26.60;;;;;;;;5206705;28;8802;-76
2022/12/21 05:10:16;;;;;;;;;16.60;15.00;;;;;;;;5188771;28;8834;-76
2022/12/21 05:12:47;;;;;;;;;4.40;4.00;;;;;;;;5188244;28;8830;-76
2022/12/21 05:15:37;;;;;;;;;14.00;14.00;;;;;;;;5206152;28;8800;-73
2022/12/21 05:18:09;;;;;;;;;27.80;26.40;;;;;;;;5206280;28;8822;-75
2022/12/21 05:20:58;;;;;;;;;36.80;33.80;;;;;;;;5191355;28;8776;-74
2022/12/21 05:23:29;;;;;;;;;25.40;22.20;;;;;;;;5204955;28;8832;-77
2022/12/21 05:26:02;;;;;;;;;27.20;24.60;;;;;;;;5204372;28;8792;-75
2022/12/21 05:28:34;;;;;;;;;21.40;19.20;;;;;;;;5170154;28;9527;-74
2022/12/21 05:31:05;;;;;;;;;18.80;14.20;;;;;;;;5193600;28;9541;-74
2022/12/21 05:33:36;;;;;;;;;34.50;30.50;;;;;;;;5192487;28;8822;-74
2022/12/21 05:36:09;;;;;;;;;31.25;31.25;;;;;;;;5203240;28;8823;-74
2022/12/21 05:38:40;;;;;;;;;34.60;30.60;;;;;;;;5203331;28;11574;-75
2022/12/21 05:41:12;;;;;;;;;35.80;32.60;;;;;;;;5201134;28;8890;-76
2022/12/21 05:43:44;;;;;;;;;33.20;32.40;;;;;;;;5203125;28;8832;-75
2022/12/21 05:46:33;;;;;;;;;28.80;28.40;;;;;;;;5203942;28;8932;-74
2022/12/21 05:49:22;;;;;;;;;31.40;30.80;;;;;;;;5202403;28;8815;-73
2022/12/21 05:51:53;;;;;;;;;22.00;20.20;;;;;;;;5204083;28;8784;-74
2022/12/21 05:54:24;;;;;;;;;21.25;21.25;;;;;;;;5203481;28;8820;-74
2022/12/21 05:56:55;;;;;;;;;40.25;38.00;;;;;;;;5204354;28;8836;-74
2022/12/21 05:59:26;;;;;;;;;66.75;52.25;;;;;;;;5204131;28;9191;-73
2022/12/21 06:01:57;;;;;;;;;43.67;42.33;;;;;;;;5208536;28;8938;-74
2022/12/21 06:04:28;;;;;;;;;49.00;46.33;;;;;;;;5208900;28;11464;-74
2022/12/21 06:07:18;;;;;;;;;51.00;46.25;;;;;;;;5208579;28;9529;-75
2022/12/21 06:09:49;;;;;;;;;49.75;45.25;;;;;;;;5191597;28;8834;-73
2022/12/21 06:12:20;;;;;;;;;23.20;23.20;;;;;;;;5207826;28;8799;-73
2022/12/21 06:14:52;;;;;;;;;19.40;18.40;;;;;;;;5191721;28;8790;-73
2022/12/21 06:17:23;;;;;;;;;22.40;21.80;;;;;;;;5208054;28;9493;-74
2022/12/21 06:19:54;;;;;;;;;33.50;32.50;;;;;;;;5208151;28;8795;-70
2022/12/21 06:22:43;;;;;;;;;39.20;30.60;;;;;;;;5208241;28;9498;-73
2022/12/21 06:25:14;;;;;;;;;45.50;44.00;;;;;;;;5191708;28;8846;-69
2022/12/21 06:27:45;;;;;;;;;42.50;41.75;;;;;;;;5218730;28;8857;-70
2022/12/21 06:30:34;;;;;;;;;62.75;49.00;;;;;;;;5189382;28;8804;-71
2022/12/21 06:33:05;;;;;;;;;24.00;22.75;;;;;;;;5171195;28;8804;-71
2022/12/21 06:35:36;;;;;;;;;24.00;24.00;;;;;;;;5203522;28;9112;-70
2022/12/21 06:38:07;;;;;;;;;4.80;4.80;;;;;;;;5201149;28;8824;-72
2022/12/21 06:40:38;;;;;;;;;31.40;30.60;;;;;;;;5202839;28;8819;-69
2022/12/21 06:43:10;;;;;;;;;34.80;33.80;;;;;;;;5205134;28;8908;-71
2022/12/21 06:45:41;;;;;;;;;37.00;36.20;;;;;;;;5171958;28;8827;-70
2022/12/21 06:48:12;;;;;;;;;44.50;39.75;;;;;;;;5185731;28;9558;-71
2022/12/21 06:50:43;;;;;;;;;23.60;22.80;;;;;;;;5189368;28;9133;-73
2022/12/21 06:53:14;;;;;;;;;23.50;21.00;;;;;;;;5207695;28;8803;-73
2022/12/21 06:56:11;;;;;;;;;28.20;25.60;;;;;;;;5195944;28;11494;-71
2022/12/21 06:58:42;;;;;;;;;21.40;21.40;;;;;;;;5196341;28;8803;-69
2022/12/21 07:01:16;;;;;;;;;18.40;18.40;;;;;;;;5197187;28;8810;-73
2022/12/21 07:03:49;;;;;;;;;21.60;18.40;;;;;;;;5212613;28;8968;-72
2022/12/21 07:06:25;;;;;;;;;23.20;22.80;;;;;;;;5194107;28;8795;-71
2022/12/21 07:08:56;;;;;;;;;17.40;16.80;;;;;;;;5209107;28;8779;-70
2022/12/21 07:11:29;;;;;;;;;31.80;28.80;;;;;;;;5210282;28;8849;-73
2022/12/21 07:14:00;;;;;;;;;32.80;30.60;;;;;;;;5212781;28;8937;-71
2022/12/21 07:16:31;;;;;;;;;42.60;36.60;;;;;;;;5177086;28;8825;-72
2022/12/21 07:19:02;;;;;;;;;33.60;32.80;;;;;;;;5210321;28;9556;-70
2022/12/21 07:21:33;;;;;;;;;28.60;28.00;;;;;;;;5210030;28;8791;-71
2022/12/21 07:24:04;;;;;;;;;42.40;35.00;;;;;;;;5226815;28;8849;-71
2022/12/21 07:26:35;;;;;;;;;15.80;12.80;;;;;;;;5192626;28;8790;-73
2022/12/21 07:29:10;;;;;;;;;44.00;43.00;;;;;;;;5226199;28;8933;-70
2022/12/21 07:32:01;;;;;;;;;42.80;39.40;;;;;;;;5195359;28;8929;-72
2022/12/21 07:34:32;;;;;;;;;48.60;44.20;;;;;;;;5209121;28;9522;-71
2022/12/21 07:37:03;;;;;;;;;36.50;31.25;;;;;;;;5191245;28;8830;-71
2022/12/21 07:39:34;;;;;;;;;38.40;34.20;;;;;;;;5226713;28;8787;-70
2022/12/21 07:42:05;;;;;;;;;30.75;30.25;;;;;;;;5226965;28;8807;-70
2022/12/21 07:44:39;;;;;;;;;41.20;41.20;;;;;;;;5207249;28;8931;-72
2022/12/21 07:47:24;;;;;;;;;34.40;33.20;;;;;;;;5214716;28;8823;-74
2022/12/21 07:49:55;;;;;;;;;45.25;44.25;;;;;;;;5216582;28;9537;-70
2022/12/21 07:52:46;;;;;;;;;44.60;43.00;;;;;;;;5211049;28;8814;-71
2022/12/21 07:55:17;;;;;;;;;28.60;27.40;;;;;;;;5202017;28;8890;-71
2022/12/21 07:57:48;;;;;;;;;53.20;47.80;;;;;;;;5220365;28;8838;-73
2022/12/21 08:00:37;;;;;;;;;45.80;40.80;;;;;;;;5205543;28;8865;-74
2022/12/21 08:03:08;;;;;;;;;53.67;47.67;;;;;;;;5207754;28;8846;-73
2022/12/21 08:05:39;;;;;;;;;52.00;45.50;;;;;;;;5222373;28;11605;-72
2022/12/21 08:08:10;;;;;;;;;42.25;42.25;;;;;;;;5187717;28;9425;-73
2022/12/21 08:10:44;;;;;;;;;42.00;39.00;;;;;;;;5176857;28;9037;-73
2022/12/21 08:13:15;;;;;;;;;65.50;55.50;;;;;;;;5202750;28;8796;-72
2022/12/21 08:16:05;;;;;;;;;68.50;54.25;;;;;;;;5203150;28;8822;-71
2022/12/21 08:18:37;;;;;;;;;32.40;30.60;;;;;;;;5227448;28;8778;-72
2022/12/21 08:21:08;;;;;;;;;38.20;36.80;;;;;;;;5209211;28;8807;-70
2022/12/21 08:23:40;;;;;;;;;49.00;47.00;;;;;;;;5192976;28;8936;-71
2022/12/21 08:26:12;;;;;;;;;57.75;49.00;;;;;;;;5209749;28;8786;-71
2022/12/21 08:28:44;;;;;;;;;16.50;6.75;;;;;;;;5209486;28;8790;-70
2022/12/21 08:31:16;;;;;;;;;67.50;57.50;;;;;;;;5209320;28;9534;-70
2022/12/21 08:34:06;;;;;;;;;52.80;45.20;;;;;;;;5227644;28;8783;-69
2022/12/21 08:36:38;;;;;;;;;48.60;44.00;;;;;;;;5227587;28;8766;-71
2022/12/21 08:39:09;;;;;;;;;33.60;32.80;;;;;;;;5227274;28;8826;-70
2022/12/21 08:41:58;;;;;;;;;31.00;29.00;;;;;;;;5211957;28;8798;-72
2022/12/21 08:44:48;;;;;;;;;19.20;18.60;;;;;;;;5227346;28;8827;-70
2022/12/21 08:47:18;;;;;;;;;39.60;34.80;;;;;;;;5223663;28;8803;-71
2022/12/21 08:50:08;;;;;;;;;28.60;26.80;;;;;;;;5206124;28;8882;-70
2022/12/21 08:52:39;;;;;;;;;36.00;33.80;;;;;;;;5188787;28;8789;-70
2022/12/21 08:55:29;;;;;;;;;33.20;33.20;;;;;;;;5206439;28;8829;-71
2022/12/21 08:57:59;;;;;;;;;30.80;30.80;;;;;;;;5188660;28;8918;-70
2022/12/21 09:00:53;;;;;;;;;35.80;35.40;;;;;;;;5208581;28;8868;-70
2022/12/21 09:03:26;;;;;;;;;26.80;23.40;;;;;;;;5207453;28;9424;-70
2022/12/21 09:06:16;;;;;;;;;96.67;77.33;;;;;;;;5208699;28;8917;-70
2022/12/21 09:08:47;;;;;;;;;41.75;38.00;;;;;;;;5191841;28;8915;-70
2022/12/21 09:11:19;;;;;;;;;51.20;48.00;;;;;;;;5200421;28;8818;-73
2022/12/21 09:13:51;;;;;;;;;55.40;50.40;;;;;;;;5190964;28;8806;-72
2022/12/21 09:16:23;;;;;;;;;46.80;44.60;;;;;;;;5190809;28;8815;-72
2022/12/21 09:18:54;;;;;;;;;42.00;38.00;;;;;;;;5174847;28;8897;-71
2022/12/21 09:21:26;;;;;;;;;45.60;41.60;;;;;;;;5224565;28;8786;-72
2022/12/21 09:24:15;;;;;;;;;50.60;46.00;;;;;;;;5193619;28;8842;-72
2022/12/21 09:26:46;;;;;;;;;71.00;56.00;;;;;;;;5191721;28;8795;-71
2022/12/21 09:29:17;;;;;;;;;73.00;60.67;;;;;;;;5191402;28;8912;-71
2022/12/21 09:31:50;;;;;;;;;81.00;62.00;;;;;;;;5191237;28;8807;-72
2022/12/21 09:34:21;;;;;;;;;78.50;61.50;;;;;;;;5207902;28;9540;-71
2022/12/21 09:36:52;;;;;;;;;61.00;53.33;;;;;;;;5208526;28;8775;-70
2022/12/21 09:39:23;;;;;;;;;51.50;48.00;;;;;;;;5208448;28;10333;-71
2022/12/21 09:41:54;;;;;;;;;56.00;48.75;;;;;;;;5189996;28;9002;-70
2022/12/21 09:44:43;;;;;;;;;41.20;37.20;;;;;;;;5207432;28;8860;-70
2022/12/21 09:47:19;;;;;;;;;56.60;49.80;;;;;;;;5206677;28;8842;-71
2022/12/21 09:49:53;;;;;;;;;67.80;58.00;;;;;;;;5190551;28;8796;-70
2022/12/21 09:52:27;;;;;;;;;66.00;54.75;;;;;;;;5206699;28;8948;-72
2022/12/21 09:55:18;;;;;;;;;54.40;48.00;;;;;;;;5225545;28;8936;-71
2022/12/21 09:57:51;;;;;;;;;77.00;62.50;;;;;;;;5207585;28;8860;-70
2022/12/21 10:00:24;;;;;;;;;73.00;59.75;;;;;;;;5175662;28;8934;-71
2022/12/21 10:03:18;;;;;;;;;87.75;71.00;;;;;;;;5188065;28;8836;-72
2022/12/21 10:05:56;;;;;;;;;74.00;62.50;;;;;;;;5207491;28;8826;-72
2022/12/21 10:08:28;;;;;;;;;83.25;65.00;;;;;;;;5191476;28;8813;-73
2022/12/21 10:11:17;;;;;;;;;68.00;57.33;;;;;;;;5207269;28;8826;-71
2022/12/21 10:13:56;;;;;;;;;74.50;61.00;;;;;;;;5170201;28;8805;-72
2022/12/21 10:16:40;;;;;;;;;72.75;59.50;;;;;;;;5204403;28;8800;-72
2022/12/21 10:19:20;;;;;;;;;73.75;58.25;;;;;;;;5191991;28;8868;-74
2022/12/21 10:22:11;;;;;;;;;72.00;56.00;;;;;;;;5222064;28;8814;-72
2022/12/21 10:24:45;;;;;;;;;57.60;49.40;;;;;;;;5222449;28;8842;-70
2022/12/21 10:27:45;;;;;;;;;78.75;65.00;;;;;;;;5222943;28;8837;-70
2022/12/21 10:30:17;;;;;;;;;70.40;58.60;;;;;;;;5223092;28;8818;-74
2022/12/21 10:32:49;;;;;;;;;72.80;57.00;;;;;;;;5227811;28;8810;-71
2022/12/21 10:35:21;;;;;;;;;29.00;25.40;;;;;;;;5199332;28;8805;-72
2022/12/21 10:38:25;;;;;;;;;52.40;46.40;;;;;;;;5211515;28;8794;-70
2022/12/21 10:40:56;;;;;;;;;68.25;58.00;;;;;;;;5236517;28;8767;-70
2022/12/21 10:43:27;;;;;;;;;69.67;55.67;;;;;;;;5235005;28;8794;-71
2022/12/21 10:45:58;;;;;;;;;68.20;54.80;;;;;;;;5207314;28;8799;-70
2022/12/21 10:48:29;;;;;;;;;65.50;54.00;;;;;;;;5194236;28;8813;-70
2022/12/21 10:51:13;;;;;;;;;57.00;51.67;;;;;;;;5207716;28;8794;-70
2022/12/21 10:53:58;;;;;;;;;84.75;66.25;;;;;;;;5225046;28;8795;-70
2022/12/21 10:56:30;;;;;;;;;69.00;58.00;;;;;;;;5224923;28;8810;-71
2022/12/21 10:59:06;;;;;;;;;66.00;54.00;;;;;;;;5170560;28;8879;-70
2022/12/21 11:01:37;;;;;;;;;49.00;44.60;;;;;;;;5185016;28;8789;-71
2022/12/21 11:04:26;;;;;;;;;45.50;44.25;;;;;;;;5206861;28;8875;-71
2022/12/21 11:07:02;;;;;;;;;35.40;32.40;;;;;;;;5207029;28;8891;-71
2022/12/21 11:09:33;;;;;;;;;35.80;35.80;;;;;;;;5190172;28;8816;-71
2022/12/21 11:12:17;;;;;;;;;49.00;44.00;;;;;;;;5206848;28;8794;-71
2022/12/21 11:14:48;;;;;;;;;56.20;49.40;;;;;;;;5207206;28;11473;-71
2022/12/21 11:17:24;;;;;;;;;46.40;40.80;;;;;;;;5206719;28;9528;-71
2022/12/21 11:20:13;;;;;;;;;39.00;34.40;;;;;;;;5224988;28;8779;-72
2022/12/21 11:22:45;;;;;;;;;26.20;25.00;;;;;;;;5190984;28;8803;-71
2022/12/21 11:25:25;;;;;;;;;42.40;35.60;;;;;;;;5190282;28;8850;-70
2022/12/21 11:28:02;;;;;;;;;40.80;38.80;;;;;;;;5207005;28;8954;-71
2022/12/21 11:30:53;;;;;;;;;26.60;25.20;;;;;;;;5225023;28;8841;-71
2022/12/21 11:33:25;;;;;;;;;15.40;15.00;;;;;;;;5224577;28;8798;-72
2022/12/21 11:36:11;;;;;;;;;36.40;31.40;;;;;;;;5224725;28;9008;-71
2022/12/21 11:38:42;;;;;;;;;47.20;43.60;;;;;;;;5190204;28;8899;-72
2022/12/21 11:41:16;;;;;;;;;53.40;45.40;;;;;;;;5210815;28;8775;-71
2022/12/21 11:43:48;;;;;;;;;45.40;42.40;;;;;;;;5210006;28;8885;-71
2022/12/21 11:46:31;;;;;;;;;31.60;30.80;;;;;;;;5194247;28;8790;-70
2022/12/21 11:49:02;;;;;;;;;60.20;45.20;;;;;;;;5227890;28;8857;-68
2022/12/21 11:51:36;;;;;;;;;46.25;45.00;;;;;;;;5227620;28;9518;-70
2022/12/21 11:54:33;;;;;;;;;38.80;34.40;;;;;;;;5212566;28;9533;-68
2022/12/21 11:57:46;;;;;;;;;27.40;27.00;;;;;;;;5196412;28;9521;-71
2022/12/21 12:00:22;;;;;;;;;23.20;22.00;;;;;;;;5170520;28;8815;-71
2022/12/21 12:03:05;;;;;;;;;22.40;22.40;;;;;;;;5205774;28;8842;-70
2022/12/21 12:05:55;;;;;;;;;29.00;29.00;;;;;;;;5206807;28;8851;-71
2022/12/21 12:08:43;;;;;;;;;30.20;28.80;;;;;;;;5202241;28;9533;-70
2022/12/21 12:11:35;;;;;;;;;34.40;30.80;;;;;;;;5224845;28;9525;-69
2022/12/21 12:14:15;;;;;;;;;27.60;27.60;;;;;;;;5208164;28;9611;-70
2022/12/21 12:17:09;;;;;;;;;33.40;29.20;;;;;;;;5191752;28;8802;-74
2022/12/21 12:19:40;;;;;;;;;21.40;21.40;;;;;;;;5215489;28;8806;-69
2022/12/21 12:22:18;;;;;;;;;12.00;12.00;;;;;;;;5208028;28;8818;-69
2022/12/21 12:25:19;;;;;;;;;33.20;30.60;;;;;;;;5191070;28;8878;-69
2022/12/21 12:28:16;;;;;;;;;35.00;31.80;;;;;;;;5190890;28;8897;-69
2022/12/21 12:30:47;;;;;;;;;32.60;30.20;;;;;;;;5191754;28;8807;-69
2022/12/21 12:33:28;;;;;;;;;31.00;31.00;;;;;;;;5225723;28;8820;-70
2022/12/21 12:36:07;;;;;;;;;35.40;35.40;;;;;;;;5191873;28;11545;-68
2022/12/21 12:38:57;;;;;;;;;28.20;26.80;;;;;;;;5174626;28;8795;-69
2022/12/21 12:41:54;;;;;;;;;57.25;51.00;;;;;;;;5191196;28;8779;-70
2022/12/21 12:44:51;;;;;;;;;25.40;25.40;;;;;;;;5220879;28;8822;-70
2022/12/21 12:47:30;;;;;;;;;22.80;22.80;;;;;;;;5202294;28;8868;-70
2022/12/21 12:50:04;;;;;;;;;22.60;22.60;;;;;;;;5225056;28;8791;-69
2022/12/21 12:52:47;;;;;;;;;24.40;24.40;;;;;;;;5191215;28;8794;-70
2022/12/21 12:55:24;;;;;;;;;25.80;24.80;;;;;;;;5205678;28;8806;-71
2022/12/21 12:58:18;;;;;;;;;24.00;22.00;;;;;;;;5187268;28;8833;-70
2022/12/21 13:00:58;;;;;;;;;19.40;17.40;;;;;;;;5192972;28;8811;-69
2022/12/21 13:03:29;;;;;;;;;26.80;26.80;;;;;;;;5199908;28;8817;-71
2022/12/21 13:06:13;;;;;;;;;34.50;33.75;;;;;;;;5203246;28;8825;-69
2022/12/21 13:08:44;;;;;;;;;51.50;45.50;;;;;;;;5230872;28;9624;-69
2022/12/21 13:11:30;;;;;;;;;48.60;45.00;;;;;;;;5213163;28;8773;-69
2022/12/21 13:14:09;;;;;;;;;35.20;34.20;;;;;;;;5205948;28;8800;-70
2022/12/21 13:16:42;;;;;;;;;25.80;22.00;;;;;;;;5205888;28;8774;-70
2022/12/21 13:19:17;;;;;;;;;38.00;37.40;;;;;;;;5188268;28;8773;-68
2022/12/21 13:21:50;;;;;;;;;43.40;42.80;;;;;;;;5188378;28;8789;-69
2022/12/21 13:24:25;;;;;;;;;43.00;40.00;;;;;;;;5188171;28;8841;-70
2022/12/21 13:26:59;;;;;;;;;42.00;36.80;;;;;;;;5187992;28;8773;-69
2022/12/21 13:30:02;;;;;;;;;20.00;19.40;;;;;;;;5191099;28;8796;-69
2022/12/21 13:32:39;;;;;;;;;30.40;30.40;;;;;;;;5188789;28;8835;-69
2022/12/21 13:35:20;;;;;;;;;36.60;34.60;;;;;;;;5199962;28;8838;-69
2022/12/21 13:38:04;;;;;;;;;41.40;38.00;;;;;;;;5208692;28;8798;-70
2022/12/21 13:40:58;;;;;;;;;57.75;50.25;;;;;;;;5225965;28;8799;-70
2022/12/21 13:43:36;;;;;;;;;46.25;45.25;;;;;;;;5203419;28;8833;-70
2022/12/21 13:46:26;;;;;;;;;21.80;20.00;;;;;;;;5209620;28;8799;-69
2022/12/21 13:49:12;;;;;;;;;37.80;36.00;;;;;;;;5229316;28;8787;-70
2022/12/21 13:52:17;;;;;;;;;38.40;37.00;;;;;;;;5226877;28;8783;-72
2022/12/21 13:54:51;;;;;;;;;39.60;36.60;;;;;;;;5208232;28;8865;-69
2022/12/21 13:57:25;;;;;;;;;37.20;33.60;;;;;;;;5207432;28;8979;-69
2022/12/21 14:00:13;;;;;;;;;43.00;41.60;;;;;;;;5226127;28;8810;-70
2022/12/21 14:03:03;;;;;;;;;38.00;36.80;;;;;;;;5206511;28;8834;-69
2022/12/21 14:05:53;;;;;;;;;40.40;37.40;;;;;;;;5209156;28;8807;-70
2022/12/21 14:08:46;;;;;;;;;31.80;30.40;;;;;;;;5192765;28;8815;-70
2022/12/21 14:11:38;;;;;;;;;47.75;45.00;;;;;;;;5193750;28;9486;-71
2022/12/21 14:14:49;;;;;;;;;42.00;33.60;;;;;;;;5210692;28;8913;-70
2022/12/21 14:17:33;;;;;;;;;33.00;32.80;;;;;;;;5192912;28;8811;-70
2022/12/21 14:20:17;;;;;;;;;37.40;32.20;;;;;;;;5226515;28;8989;-71
2022/12/21 14:22:48;;;;;;;;;61.40;47.60;;;;;;;;5222779;28;8803;-69
2022/12/21 14:25:34;;;;;;;;;61.75;51.50;;;;;;;;5204093;28;9015;-70
2022/12/21 14:28:05;;;;;;;;;58.25;47.00;;;;;;;;5188803;28;8779;-72
2022/12/21 14:30:36;;;;;;;;;38.33;38.33;;;;;;;;5188847;28;8814;-70
2022/12/21 14:33:13;;;;;;;;;69.67;57.00;;;;;;;;5205541;28;8790;-71
2022/12/21 14:35:44;;;;;;;;;64.25;54.25;;;;;;;;5223436;28;11643;-71
2022/12/21 14:38:25;;;;;;;;;77.33;59.67;;;;;;;;5206707;28;8983;-70
2022/12/21 14:41:12;;;;;;;;;67.00;53.25;;;;;;;;5192184;28;11502;-71
2022/12/21 14:44:01;;;;;;;;;39.00;38.25;;;;;;;;5188944;28;8794;-71
2022/12/21 14:46:32;;;;;;;;;41.00;39.40;;;;;;;;5218843;28;8762;-72
2022/12/21 14:49:07;;;;;;;;;42.80;39.00;;;;;;;;5201800;28;8787;-72
2022/12/21 14:51:54;;;;;;;;;38.60;35.20;;;;;;;;5189205;28;8779;-71
2022/12/21 14:54:45;;;;;;;;;9.40;6.20;;;;;;;;5202637;28;8924;-70
2022/12/21 14:57:18;;;;;;;;;54.20;45.00;;;;;;;;5185710;28;8786;-70
2022/12/21 14:59:49;;;;;;;;;51.80;47.20;;;;;;;;5174117;28;8819;-69
2022/12/21 15:02:23;;;;;;;;;52.50;46.50;;;;;;;;5196343;28;8953;-71
2022/12/21 15:05:24;;;;;;;;;63.25;52.00;;;;;;;;5183912;28;8850;-71
2022/12/21 15:08:02;;;;;;;;;66.50;54.75;;;;;;;;5167624;28;8885;-70
2022/12/21 15:10:39;;;;;;;;;57.25;48.25;;;;;;;;5183758;28;8794;-70
2022/12/21 15:13:16;;;;;;;;;53.40;48.40;;;;;;;;5185032;28;8925;-71
2022/12/21 15:15:47;;;;;;;;;49.40;47.60;;;;;;;;5185424;28;8873;-71
2022/12/21 15:18:21;;;;;;;;;47.60;36.80;;;;;;;;5186487;28;8873;-71
2022/12/21 15:20:55;;;;;;;;;58.25;47.50;;;;;;;;5169588;28;8775;-71
2022/12/21 15:23:26;;;;;;;;;44.80;39.20;;;;;;;;5169204;28;9699;-70
2022/12/21 15:26:00;;;;;;;;;63.50;52.50;;;;;;;;5185531;28;8860;-71
2022/12/21 15:28:54;;;;;;;;;42.50;37.50;;;;;;;;5185957;28;8787;-73
2022/12/21 15:31:45;;;;;;;;;68.50;56.50;;;;;;;;5185390;28;8885;-71
2022/12/21 15:34:19;;;;;;;;;65.75;53.50;;;;;;;;5169152;28;8818;-71
2022/12/21 15:36:57;;;;;;;;;48.40;45.80;;;;;;;;5187491;28;8815;-71
2022/12/21 15:39:32;;;;;;;;;44.00;41.00;;;;;;;;5186622;28;8888;-70
2022/12/21 15:42:03;;;;;;;;;34.25;34.25;;;;;;;;5187509;28;8794;-71
2022/12/21 15:44:48;;;;;;;;;25.00;24.60;;;;;;;;5169903;28;8818;-71
2022/12/21 15:47:39;;;;;;;;;52.75;45.50;;;;;;;;5186907;28;8833;-71
2022/12/21 15:50:17;;;;;;;;;63.50;52.50;;;;;;;;5186691;28;8811;-71
2022/12/21 15:52:51;;;;;;;;;71.25;53.75;;;;;;;;5186256;28;9724;-71